LFOV 181530Z AUTO 31010KT 280V350 9999 FEW042 SCT068 24/15 Q1016

ElémentsDécodage
LFOV Station météo située sur l'aérodrome de LAVAL Entrammes
181530Z émis le 18 du mois à 15h30 UTC
AUTO Bulletin édité par un automate
31010KT vent du 310°, 10 noeuds
280V350 vent de direction variable entre 280° et 350°
9999 visibilité horizontale supérieure à 10 Km
FEW042 nuages rares (1/8 à 2/8) à 4200 pieds
SCT068 nuages épars (3/8 à 4/8) à 6800 pieds
24/15 température 24°C, point de rosée 15°C
 soit une humidité relative de 57%
Q1016 la pression au niveau de la mer (QNH) est de 1016 hPa